Time;durP1;ratioP1;P1;durP2;ratioP2;P2;SDS_P1;SDS_P2;PMS_P1;PMS_P2;Temp;Humidity;BMP_temperature;BMP_pressure;BME280_temperature;BME280_humidity;BME280_pressure;Samples;Min_cycle;Max_cycle;Signal;HPM_P1;HPM_P2
2022/05/05 00:01:58;;;;;;;8.02;5.80;;;;;;;;;;6037791;23;20174;-62
2022/05/05 00:04:24;;;;;;;7.63;5.93;;;;;;;;;;6038445;23;20508;-60
2022/05/05 00:06:50;;;;;;;13.55;6.10;;;;;;;;;;6037980;23;20231;-61
2022/05/05 00:09:16;;;;;;;9.52;6.38;;;;;;;;;;6037562;23;20153;-61
2022/05/05 00:14:33;;;;;;;11.38;6.40;;;;;;;;;;6040585;23;20148;-61
2022/05/05 00:17:00;;;;;;;9.20;6.25;;;;;;;;;;6126705;23;20174;-61
2022/05/05 00:19:28;;;;;;;7.20;5.35;;;;;;;;;;6126334;23;20136;-61
2022/05/05 00:21:53;;;;;;;9.25;5.75;;;;;;;;;;6126462;23;20170;-61
2022/05/05 00:24:20;;;;;;;14.32;5.40;;;;;;;;;;6128036;23;20559;-61
2022/05/05 00:26:46;;;;;;;7.18;4.78;;;;;;;;;;6128164;23;20231;-61
2022/05/05 00:29:12;;;;;;;9.90;5.97;;;;;;;;;;6128437;23;20575;-62
2022/05/05 00:31:38;;;;;;;8.13;4.93;;;;;;;;;;6128238;23;20150;-61
2022/05/05 00:34:04;;;;;;;10.77;4.90;;;;;;;;;;6128645;23;20158;-60
2022/05/05 00:36:30;;;;;;;11.80;4.72;;;;;;;;;;6128904;23;20173;-61
2022/05/05 00:38:56;;;;;;;9.38;4.38;;;;;;;;;;6129299;23;20139;-62
2022/05/05 00:41:22;;;;;;;6.80;4.50;;;;;;;;;;6128053;23;20218;-61
2022/05/05 00:43:48;;;;;;;8.73;5.03;;;;;;;;;;6127883;23;20139;-62
2022/05/05 00:46:14;;;;;;;9.93;4.80;;;;;;;;;;6128173;23;20209;-61
2022/05/05 00:48:42;;;;;;;7.13;4.43;;;;;;;;;;6128187;23;20225;-62
2022/05/05 00:51:08;;;;;;;6.63;4.38;;;;;;;;;;6127690;23;20451;-61
2022/05/05 00:53:34;;;;;;;9.70;4.75;;;;;;;;;;6127806;23;20142;-61
2022/05/05 00:56:05;;;;;;;10.18;4.68;;;;;;;;;;6127662;23;20213;-61
2022/05/05 00:58:32;;;;;;;8.77;4.57;;;;;;;;;;6127762;23;20127;-62
2022/05/05 01:00:58;;;;;;;6.82;4.60;;;;;;;;;;6127730;23;20177;-61
2022/05/05 01:03:24;;;;;;;8.10;4.85;;;;;;;;;;6127738;23;20217;-61
2022/05/05 01:05:50;;;;;;;8.68;4.50;;;;;;;;;;6127757;23;20154;-62
2022/05/05 01:08:16;;;;;;;6.47;4.72;;;;;;;;;;6127808;23;20230;-62
2022/05/05 01:10:42;;;;;;;6.65;5.30;;;;;;;;;;6127640;23;20151;-62
2022/05/05 01:13:08;;;;;;;7.25;5.15;;;;;;;;;;6127665;23;20143;-62
2022/05/05 01:15:36;;;;;;;8.35;5.05;;;;;;;;;;6127320;23;20249;-62
2022/05/05 01:18:02;;;;;;;7.93;5.40;;;;;;;;;;6127950;23;20151;-61
2022/05/05 01:20:28;;;;;;;13.18;5.80;;;;;;;;;;6127653;23;20495;-62
2022/05/05 01:22:54;;;;;;;11.77;5.70;;;;;;;;;;6128442;23;20143;-61
2022/05/05 01:28:13;;;;;;;11.80;5.90;;;;;;;;;;6127835;23;20182;-62
2022/05/05 01:30:40;;;;;;;8.85;5.85;;;;;;;;;;6127726;23;20552;-62
2022/05/05 01:33:13;;;;;;;8.93;5.63;;;;;;;;;;6127497;23;20422;-61
2022/05/05 01:35:39;;;;;;;7.70;5.82;;;;;;;;;;6127637;23;20190;-62
2022/05/05 01:38:05;;;;;;;9.30;6.20;;;;;;;;;;6127468;23;20190;-62
2022/05/05 01:40:31;;;;;;;8.98;6.43;;;;;;;;;;6127354;23;20139;-62
2022/05/05 01:42:57;;;;;;;10.70;6.72;;;;;;;;;;6127499;23;20210;-62
2022/05/05 01:45:22;;;;;;;12.80;6.10;;;;;;;;;;6127681;23;20255;-62
2022/05/05 01:47:48;;;;;;;9.77;6.70;;;;;;;;;;6127422;23;20599;-61
2022/05/05 01:50:14;;;;;;;10.38;6.55;;;;;;;;;;6127984;23;20158;-62
2022/05/05 01:52:40;;;;;;;9.10;7.03;;;;;;;;;;6127442;23;20143;-62
2022/05/05 01:55:06;;;;;;;11.75;6.35;;;;;;;;;;6127406;23;20147;-62
2022/05/05 01:57:32;;;;;;;10.88;7.57;;;;;;;;;;6127860;23;20238;-61
2022/05/05 02:00:00;;;;;;;10.73;6.50;;;;;;;;;;6127370;23;20174;-61
2022/05/05 02:02:26;;;;;;;10.70;6.15;;;;;;;;;;6127596;23;20143;-61
2022/05/05 02:04:53;;;;;;;9.48;6.40;;;;;;;;;;6127371;23;20448;-61
2022/05/05 02:07:19;;;;;;;12.40;6.88;;;;;;;;;;6127590;23;20554;-61
2022/05/05 02:09:45;;;;;;;11.73;6.55;;;;;;;;;;6127256;23;20213;-61
2022/05/05 02:12:11;;;;;;;11.98;6.65;;;;;;;;;;6127065;23;20143;-61
2022/05/05 02:14:36;;;;;;;10.52;6.90;;;;;;;;;;6127502;23;20162;-61
2022/05/05 02:17:03;;;;;;;14.23;7.43;;;;;;;;;;6127682;23;20175;-61
2022/05/05 02:19:28;;;;;;;10.93;7.32;;;;;;;;;;6127816;23;20143;-61
2022/05/05 02:21:55;;;;;;;11.75;6.38;;;;;;;;;;6127529;23;20162;-60
2022/05/05 02:24:21;;;;;;;9.77;6.20;;;;;;;;;;6127832;23;20151;-60
2022/05/05 02:26:47;;;;;;;10.25;6.60;;;;;;;;;;6127487;23;20143;-62
2022/05/05 02:29:13;;;;;;;7.60;6.38;;;;;;;;;;6127657;23;20197;-62
2022/05/05 02:31:39;;;;;;;9.52;6.10;;;;;;;;;;6127588;23;20467;-61
2022/05/05 02:34:08;;;;;;;10.95;6.68;;;;;;;;;;6127246;23;20154;-61
2022/05/05 02:39:19;;;;;;;10.45;7.03;;;;;;;;;;6127216;23;20170;-61
2022/05/05 02:41:45;;;;;;;11.13;7.00;;;;;;;;;;6127203;23;20147;-62
2022/05/05 02:44:11;;;;;;;12.43;8.55;;;;;;;;;;6126884;23;20222;-62
2022/05/05 02:46:37;;;;;;;13.50;8.55;;;;;;;;;;6126673;23;20182;-62
2022/05/05 02:49:03;;;;;;;16.08;8.77;;;;;;;;;;6126906;23;20146;-62
2022/05/05 02:51:29;;;;;;;17.98;9.68;;;;;;;;;;6126729;23;20143;-62
2022/05/05 02:56:39;;;;;;;15.20;8.75;;;;;;;;;;6126910;23;20634;-62
2022/05/05 02:59:05;;;;;;;18.17;10.40;;;;;;;;;;6127360;23;20143;-60
2022/05/05 03:01:31;;;;;;;16.35;8.93;;;;;;;;;;6127337;23;20150;-60
2022/05/05 03:03:57;;;;;;;19.50;9.95;;;;;;;;;;6127573;23;20147;-60
2022/05/05 03:06:23;;;;;;;19.00;9.55;;;;;;;;;;6127317;23;20273;-60
2022/05/05 03:08:49;;;;;;;17.42;9.40;;;;;;;;;;6126786;23;20143;-62
2022/05/05 03:11:14;;;;;;;15.32;9.85;;;;;;;;;;6127260;23;20230;-62
2022/05/05 03:13:40;;;;;;;15.30;8.90;;;;;;;;;;6127470;23;20222;-61
2022/05/05 03:16:06;;;;;;;17.48;9.85;;;;;;;;;;6127307;23;20167;-62
2022/05/05 03:18:32;;;;;;;16.15;9.23;;;;;;;;;;6127185;23;20158;-61
2022/05/05 03:20:58;;;;;;;15.70;9.35;;;;;;;;;;6127258;23;20213;-61
2022/05/05 03:23:24;;;;;;;14.27;9.05;;;;;;;;;;6127195;23;20532;-61
2022/05/05 03:25:51;;;;;;;12.77;8.85;;;;;;;;;;6127017;23;20241;-62
2022/05/05 03:28:17;;;;;;;13.82;8.90;;;;;;;;;;6127140;23;20221;-62
2022/05/05 03:30:43;;;;;;;17.50;8.75;;;;;;;;;;6127114;23;20155;-61
2022/05/05 03:33:08;;;;;;;13.13;8.93;;;;;;;;;;6126835;23;20634;-62
2022/05/05 03:35:34;;;;;;;17.70;9.02;;;;;;;;;;6126478;23;20612;-64
2022/05/05 03:38:00;;;;;;;21.40;9.75;;;;;;;;;;6126343;23;20169;-62
2022/05/05 03:40:26;;;;;;;20.77;10.45;;;;;;;;;;6126859;23;20205;-61
2022/05/05 03:42:52;;;;;;;14.38;9.02;;;;;;;;;;6126387;23;20551;-62
2022/05/05 03:45:18;;;;;;;15.15;9.15;;;;;;;;;;6126546;23;20145;-62
2022/05/05 03:47:45;;;;;;;12.10;9.05;;;;;;;;;;6126447;23;20143;-62
2022/05/05 03:50:11;;;;;;;15.02;9.10;;;;;;;;;;6126869;23;20142;-62
2022/05/05 03:52:37;;;;;;;15.73;9.45;;;;;;;;;;6127061;23;20671;-61
2022/05/05 03:55:03;;;;;;;16.58;8.90;;;;;;;;;;6126490;23;20234;-61
2022/05/05 03:57:29;;;;;;;18.45;9.88;;;;;;;;;;6126589;23;20556;-61
2022/05/05 03:59:55;;;;;;;20.25;9.88;;;;;;;;;;6128402;23;20139;-61
2022/05/05 04:02:20;;;;;;;18.73;9.93;;;;;;;;;;6128218;23;20154;-61
2022/05/05 04:04:46;;;;;;;18.30;10.82;;;;;;;;;;6128491;23;20147;-62
2022/05/05 04:07:12;;;;;;;17.38;10.57;;;;;;;;;;6128553;23;20154;-62
2022/05/05 04:09:38;;;;;;;16.83;10.07;;;;;;;;;;6128836;23;20154;-62
2022/05/05 04:12:04;;;;;;;15.13;9.65;;;;;;;;;;6128579;23;20158;-61
2022/05/05 04:14:33;;;;;;;12.68;9.52;;;;;;;;;;6128574;23;20170;-61
2022/05/05 04:16:59;;;;;;;20.63;9.48;;;;;;;;;;6127969;23;20606;-61
2022/05/05 04:19:25;;;;;;;16.60;9.55;;;;;;;;;;6128161;23;20149;-61
2022/05/05 04:21:51;;;;;;;14.63;9.02;;;;;;;;;;6128180;23;20154;-60
2022/05/05 04:24:17;;;;;;;15.30;8.98;;;;;;;;;;6128151;23;20543;-61
2022/05/05 04:26:44;;;;;;;14.35;8.75;;;;;;;;;;6128610;23;20143;-61
2022/05/05 04:29:10;;;;;;;14.38;8.80;;;;;;;;;;6128594;23;20222;-62
2022/05/05 04:31:36;;;;;;;13.85;8.25;;;;;;;;;;6128366;23;20154;-62
2022/05/05 04:34:04;;;;;;;15.38;8.90;;;;;;;;;;6128836;23;20154;-62
2022/05/05 04:36:34;;;;;;;15.95;8.63;;;;;;;;;;6128131;23;20503;-62
2022/05/05 04:39:00;;;;;;;14.52;8.90;;;;;;;;;;6128274;23;20139;-62
2022/05/05 04:41:26;;;;;;;14.02;8.93;;;;;;;;;;6128065;23;20536;-62
2022/05/05 04:43:52;;;;;;;14.07;9.27;;;;;;;;;;6127889;23;20153;-61
2022/05/05 04:46:18;;;;;;;14.52;9.30;;;;;;;;;;6128238;23;20222;-62
2022/05/05 04:48:44;;;;;;;14.63;8.43;;;;;;;;;;6102550;23;20521;-62
2022/05/05 04:51:10;;;;;;;13.60;8.93;;;;;;;;;;6127881;23;20170;-62
2022/05/05 04:53:36;;;;;;;14.65;8.77;;;;;;;;;;6127896;23;20171;-62
2022/05/05 04:56:02;;;;;;;15.93;8.18;;;;;;;;;;6128226;23;20297;-61
2022/05/05 04:58:28;;;;;;;11.95;8.23;;;;;;;;;;6102615;23;20151;-62
2022/05/05 05:00:54;;;;;;;11.35;7.82;;;;;;;;;;6128056;23;20673;-62
2022/05/05 05:03:32;;;;;;;12.90;7.85;;;;;;;;;;6127700;23;20578;-62
2022/05/05 05:05:58;;;;;;;12.73;7.90;;;;;;;;;;6128583;23;20511;-62
2022/05/05 05:08:24;;;;;;;11.65;7.53;;;;;;;;;;6127259;23;20175;-62
2022/05/05 05:10:50;;;;;;;12.90;7.43;;;;;;;;;;6127796;23;20151;-62
2022/05/05 05:13:16;;;;;;;10.95;7.68;;;;;;;;;;6127993;23;20147;-62
2022/05/05 05:15:42;;;;;;;12.73;7.85;;;;;;;;;;6127886;23;20529;-63
2022/05/05 05:18:08;;;;;;;8.10;7.20;;;;;;;;;;6127513;23;20142;-62
2022/05/05 05:20:33;;;;;;;10.23;6.70;;;;;;;;;;6127620;23;20154;-62
2022/05/05 05:22:59;;;;;;;11.95;7.15;;;;;;;;;;6127645;23;20222;-61
2022/05/05 05:25:25;;;;;;;13.20;6.63;;;;;;;;;;6128354;23;20217;-60
2022/05/05 05:27:51;;;;;;;11.10;6.57;;;;;;;;;;6127830;23;20147;-60
2022/05/05 05:30:17;;;;;;;9.95;6.05;;;;;;;;;;6127711;23;20273;-60
2022/05/05 05:32:43;;;;;;;11.57;6.47;;;;;;;;;;6127525;23;20146;-62
2022/05/05 05:35:09;;;;;;;15.10;5.82;;;;;;;;;;6127494;23;20175;-62
2022/05/05 05:37:35;;;;;;;9.25;5.43;;;;;;;;;;6127224;23;20159;-61
2022/05/05 05:40:01;;;;;;;10.35;5.63;;;;;;;;;;6128202;23;20143;-61
2022/05/05 05:42:27;;;;;;;11.20;5.80;;;;;;;;;;6127240;23;20203;-62
2022/05/05 05:44:53;;;;;;;9.73;5.75;;;;;;;;;;6127482;23;20439;-62
2022/05/05 05:47:18;;;;;;;9.65;5.20;;;;;;;;;;6127349;23;20147;-62
2022/05/05 05:49:44;;;;;;;9.45;5.72;;;;;;;;;;6127468;23;20154;-62
2022/05/05 05:52:10;;;;;;;7.15;4.78;;;;;;;;;;6127321;23;20507;-61
2022/05/05 05:54:36;;;;;;;8.32;5.47;;;;;;;;;;6127287;23;20155;-62
2022/05/05 05:57:02;;;;;;;7.03;4.80;;;;;;;;;;6127065;23;20171;-62
2022/05/05 05:59:28;;;;;;;6.50;5.03;;;;;;;;;;6127137;23;20436;-62
2022/05/05 06:04:39;;;;;;;8.48;5.13;;;;;;;;;;6127054;23;20143;-62
2022/05/05 06:07:05;;;;;;;7.20;5.57;;;;;;;;;;6127457;23;20433;-61
2022/05/05 06:09:30;;;;;;;7.90;5.20;;;;;;;;;;6127259;23;20161;-61
2022/05/05 06:11:56;;;;;;;7.63;4.40;;;;;;;;;;6127065;23;20504;-62
2022/05/05 06:14:22;;;;;;;7.97;4.90;;;;;;;;;;6127026;23;20147;-61
2022/05/05 06:16:48;;;;;;;8.68;4.65;;;;;;;;;;6127001;23;20170;-61
2022/05/05 06:19:14;;;;;;;5.65;4.38;;;;;;;;;;6128815;23;20191;-61
2022/05/05 06:21:40;;;;;;;8.95;4.72;;;;;;;;;;6132093;23;20154;-61
2022/05/05 06:24:06;;;;;;;6.63;4.32;;;;;;;;;;6128019;23;20153;-61
2022/05/05 06:26:33;;;;;;;6.50;4.28;;;;;;;;;;6126913;23;20147;-61
2022/05/05 06:28:59;;;;;;;10.50;4.53;;;;;;;;;;6127048;23;20209;-60
2022/05/05 06:31:24;;;;;;;9.90;4.93;;;;;;;;;;6127673;23;20191;-60
2022/05/05 06:33:50;;;;;;;6.53;4.30;;;;;;;;;;6126997;23;20191;-61
2022/05/05 06:36:17;;;;;;;9.07;4.25;;;;;;;;;;6127180;23;20171;-59
2022/05/05 06:38:43;;;;;;;7.00;4.20;;;;;;;;;;6126500;23;20186;-61
2022/05/05 06:41:09;;;;;;;5.78;4.43;;;;;;;;;;6127022;23;20201;-61
2022/05/05 06:43:35;;;;;;;8.75;5.20;;;;;;;;;;6127114;23;20146;-60
2022/05/05 06:46:01;;;;;;;8.40;4.50;;;;;;;;;;6127132;23;20162;-61
2022/05/05 06:48:27;;;;;;;7.30;4.20;;;;;;;;;;6126452;23;20147;-62
2022/05/05 06:50:53;;;;;;;10.55;5.30;;;;;;;;;;6126654;23;20179;-61
2022/05/05 06:53:19;;;;;;;5.38;4.55;;;;;;;;;;6127001;23;20143;-61
2022/05/05 06:55:46;;;;;;;8.93;4.53;;;;;;;;;;6126651;23;20177;-61
2022/05/05 06:58:12;;;;;;;8.45;4.68;;;;;;;;;;6126982;23;20159;-62
2022/05/05 07:03:23;;;;;;;7.32;4.00;;;;;;;;;;6126705;23;20146;-61
2022/05/05 07:05:49;;;;;;;7.82;4.40;;;;;;;;;;6126297;23;20147;-61
2022/05/05 07:08:15;;;;;;;5.55;3.10;;;;;;;;;;6126508;23;20143;-61
2022/05/05 07:10:53;;;;;;;6.13;2.90;;;;;;;;;;6126177;23;20153;-61
2022/05/05 07:13:19;;;;;;;5.80;3.20;;;;;;;;;;6126832;23;20181;-62
2022/05/05 07:15:45;;;;;;;5.18;2.90;;;;;;;;;;6125929;23;20586;-61
2022/05/05 07:18:11;;;;;;;4.00;2.60;;;;;;;;;;6126717;23;20161;-61
2022/05/05 07:20:37;;;;;;;5.97;2.78;;;;;;;;;;6126419;23;20221;-61
2022/05/05 07:23:04;;;;;;;4.85;2.90;;;;;;;;;;6126594;23;20177;-61
2022/05/05 07:25:30;;;;;;;5.13;2.88;;;;;;;;;;6126620;23;20448;-62
2022/05/05 07:27:57;;;;;;;5.55;2.78;;;;;;;;;;6126258;23;20143;-62
2022/05/05 07:30:23;;;;;;;5.30;3.20;;;;;;;;;;6126284;23;20147;-62
2022/05/05 07:32:50;;;;;;;3.90;2.88;;;;;;;;;;6128021;23;20154;-62
2022/05/05 07:35:17;;;;;;;6.97;3.00;;;;;;;;;;6128216;23;20602;-60
2022/05/05 07:37:43;;;;;;;5.30;2.90;;;;;;;;;;6128369;23;20162;-61
2022/05/05 07:40:09;;;;;;;5.63;3.00;;;;;;;;;;6128751;23;20205;-61
2022/05/05 07:42:37;;;;;;;3.53;2.70;;;;;;;;;;6128363;23;20527;-62
2022/05/05 07:45:03;;;;;;;6.70;3.03;;;;;;;;;;6128392;23;20586;-61
2022/05/05 07:47:29;;;;;;;6.75;2.72;;;;;;;;;;6129175;23;20154;-61
2022/05/05 07:49:55;;;;;;;5.78;2.90;;;;;;;;;;6128223;23;20143;-61
2022/05/05 07:52:21;;;;;;;4.82;3.20;;;;;;;;;;6128766;23;20154;-61
2022/05/05 07:54:47;;;;;;;6.07;2.90;;;;;;;;;;6128414;23;20146;-62
2022/05/05 07:57:13;;;;;;;3.88;2.38;;;;;;;;;;6128193;23;20240;-61
2022/05/05 07:59:44;;;;;;;6.18;2.40;;;;;;;;;;6128533;23;20235;-61
2022/05/05 08:02:13;;;;;;;4.55;2.50;;;;;;;;;;6128538;23;20209;-61
2022/05/05 08:04:39;;;;;;;3.58;2.22;;;;;;;;;;6128213;23;20483;-62
2022/05/05 08:07:05;;;;;;;5.32;2.42;;;;;;;;;;6128131;23;20237;-58
2022/05/05 08:09:31;;;;;;;4.18;2.47;;;;;;;;;;6128055;23;20155;-62
2022/05/05 08:11:59;;;;;;;5.00;2.40;;;;;;;;;;6128310;23;20171;-62
2022/05/05 08:14:25;;;;;;;5.63;3.00;;;;;;;;;;6128182;23;20453;-62
2022/05/05 08:16:51;;;;;;;5.90;2.65;;;;;;;;;;6128069;23;20258;-61
2022/05/05 08:19:17;;;;;;;4.18;3.10;;;;;;;;;;6127892;23;20143;-62
2022/05/05 08:21:43;;;;;;;6.07;2.25;;;;;;;;;;6128163;23;20553;-61
2022/05/05 08:29:39;;;;;;;4.50;2.30;;;;;;;;;;6128386;23;20244;-60
2022/05/05 08:32:05;;;;;;;3.80;2.50;;;;;;;;;;6128444;23;20175;-60
2022/05/05 08:34:31;;;;;;;3.88;2.50;;;;;;;;;;6131022;23;20143;-62
2022/05/05 08:36:57;;;;;;;4.00;2.30;;;;;;;;;;6140960;23;20250;-61
2022/05/05 08:39:22;;;;;;;3.80;2.10;;;;;;;;;;6128345;23;20197;-61
2022/05/05 08:41:49;;;;;;;7.85;2.38;;;;;;;;;;6128069;23;20250;-62
2022/05/05 08:44:15;;;;;;;3.60;2.55;;;;;;;;;;6128036;23;20138;-61
2022/05/05 08:46:41;;;;;;;3.88;2.60;;;;;;;;;;6127748;23;20147;-62
2022/05/05 08:49:08;;;;;;;5.25;2.58;;;;;;;;;;6127807;23;20575;-62
2022/05/05 08:51:53;;;;;;;3.08;2.08;;;;;;;;;;6127732;23;20155;-61
2022/05/05 08:54:20;;;;;;;4.60;2.60;;;;;;;;;;6127749;23;20157;-62
2022/05/05 08:56:54;;;;;;;4.40;2.40;;;;;;;;;;6127673;23;20162;-61
2022/05/05 08:59:22;;;;;;;3.97;2.33;;;;;;;;;;6127889;23;20558;-61
2022/05/05 09:01:51;;;;;;;5.07;2.50;;;;;;;;;;6128159;23;20147;-61
2022/05/05 09:04:17;;;;;;;3.92;2.42;;;;;;;;;;6127995;23;20218;-61
2022/05/05 09:06:43;;;;;;;4.25;2.40;;;;;;;;;;6127616;23;20559;-61
2022/05/05 09:09:31;;;;;;;5.07;2.72;;;;;;;;;;6127844;23;20146;-61
2022/05/05 09:12:10;;;;;;;7.15;2.60;;;;;;;;;;6127218;23;20143;-61
2022/05/05 09:14:37;;;;;;;4.78;2.75;;;;;;;;;;6127977;23;20504;-61
2022/05/05 09:17:03;;;;;;;8.38;3.13;;;;;;;;;;6127558;23;20166;-61
2022/05/05 09:19:29;;;;;;;5.40;2.92;;;;;;;;;;6127802;23;20157;-61
2022/05/05 09:21:57;;;;;;;7.70;2.80;;;;;;;;;;6127431;23;20171;-61
2022/05/05 09:24:36;;;;;;;3.70;2.80;;;;;;;;;;6127677;23;20155;-61
2022/05/05 09:27:14;;;;;;;4.13;2.78;;;;;;;;;;6127865;23;20517;-61
2022/05/05 09:29:40;;;;;;;4.93;2.60;;;;;;;;;;6127495;23;20127;-61
2022/05/05 09:32:15;;;;;;;5.75;2.85;;;;;;;;;;6127485;23;20143;-59
2022/05/05 09:34:41;;;;;;;4.90;2.40;;;;;;;;;;6127262;23;20213;-59
2022/05/05 09:37:19;;;;;;;3.95;2.95;;;;;;;;;;6127189;23;20215;-60
2022/05/05 09:39:45;;;;;;;4.53;2.97;;;;;;;;;;6127289;23;20143;-59
2022/05/05 09:42:11;;;;;;;4.80;2.80;;;;;;;;;;6127479;23;20139;-60
2022/05/05 09:44:46;;;;;;;5.10;2.55;;;;;;;;;;6127788;23;20552;-60
2022/05/05 09:47:15;;;;;;;9.07;3.40;;;;;;;;;;6127198;23;20142;-60
2022/05/05 09:49:42;;;;;;;6.75;2.70;;;;;;;;;;6127386;23;20659;-59
2022/05/05 09:57:40;;;;;;;7.07;3.17;;;;;;;;;;6127066;23;20181;-59
2022/05/05 10:00:19;;;;;;;3.75;2.80;;;;;;;;;;6127362;23;20150;-59
2022/05/05 10:05:30;;;;;;;5.35;2.78;;;;;;;;;;6127157;23;20194;-59
2022/05/05 10:07:56;;;;;;;3.85;2.60;;;;;;;;;;6127118;23;20165;-58
2022/05/05 10:10:22;;;;;;;4.35;2.63;;;;;;;;;;6127130;23;20237;-60
2022/05/05 10:12:49;;;;;;;6.68;2.60;;;;;;;;;;6126898;23;20551;-57
2022/05/05 10:15:15;;;;;;;6.63;2.75;;;;;;;;;;6127461;23;20158;-60
2022/05/05 10:17:41;;;;;;;5.97;2.95;;;;;;;;;;6126816;23;20147;-60
2022/05/05 10:20:10;;;;;;;5.63;3.10;;;;;;;;;;6127112;23;20550;-59
2022/05/05 10:22:40;;;;;;;3.75;2.38;;;;;;;;;;6128003;23;20151;-62
2022/05/05 10:25:32;;;;;;;4.70;2.72;;;;;;;;;;6127448;23;20162;-59
2022/05/05 10:27:59;;;;;;;4.15;2.60;;;;;;;;;;6127177;23;20146;-59
2022/05/05 10:30:34;;;;;;;6.65;3.00;;;;;;;;;;6126782;23;20143;-59
2022/05/05 10:33:00;;;;;;;4.72;2.95;;;;;;;;;;6127139;23;20228;-58
2022/05/05 10:35:26;;;;;;;5.13;2.80;;;;;;;;;;6127397;23;20151;-59
2022/05/05 10:37:52;;;;;;;6.43;3.40;;;;;;;;;;6127231;23;20656;-59
2022/05/05 10:40:18;;;;;;;4.78;2.97;;;;;;;;;;6126910;23;20546;-59
2022/05/05 10:42:45;;;;;;;3.30;2.92;;;;;;;;;;6127135;23;20139;-59
2022/05/05 10:45:13;;;;;;;4.97;2.67;;;;;;;;;;6127047;23;20234;-59
2022/05/05 10:48:04;;;;;;;5.43;2.67;;;;;;;;;;6127067;23;20150;-59
2022/05/05 10:50:31;;;;;;;7.80;3.20;;;;;;;;;;6127101;23;20148;-59
2022/05/05 10:52:57;;;;;;;5.78;3.20;;;;;;;;;;6126820;23;20193;-59
2022/05/05 10:55:42;;;;;;;3.50;3.20;;;;;;;;;;6126731;23;20500;-59
2022/05/05 10:58:10;;;;;;;5.22;2.90;;;;;;;;;;6126550;23;20201;-59
2022/05/05 11:00:40;;;;;;;6.78;3.45;;;;;;;;;;6126634;23;20153;-59
2022/05/05 11:03:09;;;;;;;4.20;2.92;;;;;;;;;;6126871;23;20246;-59
2022/05/05 11:05:36;;;;;;;6.50;3.13;;;;;;;;;;6126888;23;20153;-59
2022/05/05 11:08:08;;;;;;;4.47;3.13;;;;;;;;;;6127164;23;20146;-59
2022/05/05 11:13:40;;;;;;;7.18;3.40;;;;;;;;;;6127389;23;20571;-59
2022/05/05 11:22:08;;;;;;;8.73;3.08;;;;;;;;;;6126527;23;20143;-58
2022/05/05 11:24:35;;;;;;;5.20;2.75;;;;;;;;;;6126968;23;20138;-58
2022/05/05 11:27:01;;;;;;;5.20;2.97;;;;;;;;;;6126709;23;20508;-58
2022/05/05 11:29:33;;;;;;;5.70;2.78;;;;;;;;;;6126548;23;20151;-58
2022/05/05 11:32:05;;;;;;;5.82;2.88;;;;;;;;;;6126236;23;20147;-61
2022/05/05 11:34:34;;;;;;;6.20;3.15;;;;;;;;;;6126999;23;20131;-58
2022/05/05 11:37:01;;;;;;;5.75;3.20;;;;;;;;;;6126220;23;20186;-59
2022/05/05 11:39:28;;;;;;;4.78;3.08;;;;;;;;;;6126647;23;20575;-58
2022/05/05 11:42:01;;;;;;;4.88;2.97;;;;;;;;;;6126397;23;20158;-57
2022/05/05 11:44:27;;;;;;;6.78;3.08;;;;;;;;;;6126884;23;20139;-57
2022/05/05 11:46:54;;;;;;;7.05;3.60;;;;;;;;;;6126945;23;20162;-58
2022/05/05 11:49:20;;;;;;;5.53;3.25;;;;;;;;;;6126675;23;20158;-58
2022/05/05 11:51:46;;;;;;;5.30;3.25;;;;;;;;;;6127176;23;20158;-58
2022/05/05 11:54:15;;;;;;;9.13;3.28;;;;;;;;;;6126655;23;20622;-59
2022/05/05 11:56:46;;;;;;;9.70;3.58;;;;;;;;;;6126690;23;20210;-59
2022/05/05 12:02:01;;;;;;;3.88;3.47;;;;;;;;;;6126537;23;20143;-60
2022/05/05 12:04:28;;;;;;;5.28;3.50;;;;;;;;;;6126676;23;20150;-60
2022/05/05 12:06:54;;;;;;;5.55;3.83;;;;;;;;;;6126348;23;20567;-60
2022/05/05 12:09:20;;;;;;;9.98;3.95;;;;;;;;;;6126584;23;20222;-60
2022/05/05 12:11:46;;;;;;;6.25;3.80;;;;;;;;;;6126755;23;20147;-59
2022/05/05 12:14:13;;;;;;;5.18;3.55;;;;;;;;;;6126541;23;20209;-58
2022/05/05 12:16:40;;;;;;;7.45;3.40;;;;;;;;;;6126125;23;20583;-57
2022/05/05 12:19:17;;;;;;;6.20;3.63;;;;;;;;;;6127361;23;20147;-60
2022/05/05 12:21:54;;;;;;;5.15;3.45;;;;;;;;;;6128426;23;20278;-60
2022/05/05 12:24:22;;;;;;;5.78;3.42;;;;;;;;;;6128708;23;20158;-60
2022/05/05 12:26:48;;;;;;;6.20;3.72;;;;;;;;;;6128207;23;20147;-60
2022/05/05 12:29:15;;;;;;;5.63;3.55;;;;;;;;;;6128135;23;20142;-59
2022/05/05 12:31:52;;;;;;;6.32;3.08;;;;;;;;;;6128239;23;20209;-59
2022/05/05 12:34:22;;;;;;;6.05;3.22;;;;;;;;;;6128205;23;20257;-59
2022/05/05 12:36:48;;;;;;;4.63;3.72;;;;;;;;;;6127922;23;20178;-60
2022/05/05 12:39:14;;;;;;;8.07;3.30;;;;;;;;;;6128053;23;20136;-60
2022/05/05 12:42:00;;;;;;;5.85;3.03;;;;;;;;;;6128115;23;20564;-60
2022/05/05 12:44:35;;;;;;;6.05;3.00;;;;;;;;;;6128045;23;20147;-60
2022/05/05 12:47:04;;;;;;;7.22;3.22;;;;;;;;;;6127979;23;20147;-60
2022/05/05 12:49:37;;;;;;;4.75;3.10;;;;;;;;;;6101794;23;20158;-60
2022/05/05 12:52:04;;;;;;;5.93;3.20;;;;;;;;;;6127933;23;20170;-60
2022/05/05 12:59:59;;;;;;;6.95;3.00;;;;;;;;;;6128186;23;20145;-60
2022/05/05 13:02:25;;;;;;;8.30;2.83;;;;;;;;;;6128006;23;20175;-60
2022/05/05 13:04:51;;;;;;;6.63;3.28;;;;;;;;;;6128039;23;20143;-60
2022/05/05 13:07:18;;;;;;;6.85;3.40;;;;;;;;;;6127911;23;20143;-60
2022/05/05 13:09:44;;;;;;;7.60;3.30;;;;;;;;;;6127737;23;20147;-60
2022/05/05 13:12:11;;;;;;;5.70;3.20;;;;;;;;;;6128014;23;20205;-60
2022/05/05 13:14:37;;;;;;;5.97;2.90;;;;;;;;;;6127641;23;20143;-60
2022/05/05 13:17:03;;;;;;;7.22;3.45;;;;;;;;;;6127574;23;20170;-60
2022/05/05 13:19:29;;;;;;;8.40;3.53;;;;;;;;;;6127554;23;20198;-60
2022/05/05 13:21:56;;;;;;;6.90;3.40;;;;;;;;;;6127973;23;20147;-60
2022/05/05 13:24:22;;;;;;;4.90;2.90;;;;;;;;;;6127578;23;20139;-60
2022/05/05 13:26:48;;;;;;;7.57;2.90;;;;;;;;;;6127540;23;20146;-60
2022/05/05 13:29:15;;;;;;;6.95;2.90;;;;;;;;;;6127383;23;20167;-59
2022/05/05 13:31:40;;;;;;;5.10;2.88;;;;;;;;;;6127276;23;20158;-60
2022/05/05 13:34:08;;;;;;;6.82;2.55;;;;;;;;;;6127209;23;20175;-60
2022/05/05 13:36:35;;;;;;;6.32;2.90;;;;;;;;;;6127233;23;20179;-60
2022/05/05 13:39:01;;;;;;;5.78;2.65;;;;;;;;;;6127568;23;20147;-60
2022/05/05 13:41:27;;;;;;;4.32;2.95;;;;;;;;;;6127456;23;20143;-60
2022/05/05 13:43:53;;;;;;;5.22;2.70;;;;;;;;;;6127311;23;20154;-60
2022/05/05 13:46:19;;;;;;;5.40;2.40;;;;;;;;;;6127352;23;20147;-60
2022/05/05 13:48:45;;;;;;;4.88;2.40;;;;;;;;;;6127101;23;20234;-60
2022/05/05 13:51:12;;;;;;;5.65;2.60;;;;;;;;;;6127382;23;20564;-60
2022/05/05 13:53:37;;;;;;;4.75;2.28;;;;;;;;;;6126995;23;20440;-60
2022/05/05 13:56:04;;;;;;;4.10;2.53;;;;;;;;;;6127058;23;20167;-60
2022/05/05 13:58:30;;;;;;;6.72;2.70;;;;;;;;;;6127441;23;20201;-58
2022/05/05 14:00:56;;;;;;;5.00;2.42;;;;;;;;;;6127193;23;20226;-60
2022/05/05 14:03:22;;;;;;;6.05;2.30;;;;;;;;;;6127477;23;20214;-60
2022/05/05 14:05:48;;;;;;;5.88;2.72;;;;;;;;;;6127379;23;20158;-60
2022/05/05 14:13:43;;;;;;;6.93;2.42;;;;;;;;;;6127401;23;20459;-59
2022/05/05 14:16:09;;;;;;;4.38;2.10;;;;;;;;;;6126904;23;20167;-60
2022/05/05 14:18:37;;;;;;;4.53;2.40;;;;;;;;;;6127323;23;20146;-60
2022/05/05 14:21:03;;;;;;;4.63;2.38;;;;;;;;;;6127157;23;20154;-60
2022/05/05 14:23:29;;;;;;;4.43;2.15;;;;;;;;;;6101069;23;20446;-60
2022/05/05 14:25:55;;;;;;;3.17;2.13;;;;;;;;;;6126964;23;20154;-60
2022/05/05 14:28:20;;;;;;;4.78;2.35;;;;;;;;;;6126944;23;20146;-60
2022/05/05 14:30:46;;;;;;;7.47;2.22;;;;;;;;;;6127068;23;20157;-60
2022/05/05 14:33:12;;;;;;;3.53;2.28;;;;;;;;;;6127303;23;20400;-60
2022/05/05 14:35:38;;;;;;;4.22;2.28;;;;;;;;;;6126810;23;20154;-60
2022/05/05 14:38:04;;;;;;;5.55;2.30;;;;;;;;;;6127037;23;20233;-60
2022/05/05 14:40:31;;;;;;;3.42;2.03;;;;;;;;;;6127112;23;20170;-59
2022/05/05 14:42:56;;;;;;;3.80;2.10;;;;;;;;;;6126669;23;20142;-60
2022/05/05 14:45:22;;;;;;;8.25;2.47;;;;;;;;;;6126902;23;20173;-61
2022/05/05 14:47:48;;;;;;;3.95;2.50;;;;;;;;;;6126968;23;20253;-60
2022/05/05 14:50:14;;;;;;;6.13;2.35;;;;;;;;;;6126789;23;20494;-61
2022/05/05 14:52:41;;;;;;;4.55;2.20;;;;;;;;;;6126931;23;20234;-61
2022/05/05 14:55:07;;;;;;;3.78;2.20;;;;;;;;;;6126935;23;20150;-61
2022/05/05 14:57:33;;;;;;;3.25;2.00;;;;;;;;;;6126981;23;20185;-61
2022/05/05 14:59:59;;;;;;;4.18;1.70;;;;;;;;;;6126757;23;20143;-61
2022/05/05 15:02:25;;;;;;;5.53;2.25;;;;;;;;;;6126776;23;20437;-61
2022/05/05 15:04:51;;;;;;;3.33;2.05;;;;;;;;;;6127348;23;20151;-61
2022/05/05 15:07:17;;;;;;;3.15;1.75;;;;;;;;;;6126478;23;20147;-61
2022/05/05 15:09:43;;;;;;;3.33;1.48;;;;;;;;;;6126496;23;20150;-61
2022/05/05 15:12:09;;;;;;;4.20;1.80;;;;;;;;;;6126818;23;20209;-60
2022/05/05 15:14:36;;;;;;;3.20;1.40;;;;;;;;;;6127041;23;20174;-60
2022/05/05 15:17:05;;;;;;;1.77;1.27;;;;;;;;;;6126758;23;20499;-60
2022/05/05 15:19:33;;;;;;;2.60;1.40;;;;;;;;;;6126651;23;20185;-61
2022/05/05 15:21:58;;;;;;;3.08;1.05;;;;;;;;;;6126753;23;20143;-60
2022/05/05 15:24:24;;;;;;;2.42;1.05;;;;;;;;;;6126601;23;20482;-60
2022/05/05 15:26:50;;;;;;;2.45;1.00;;;;;;;;;;6126455;23;20156;-61
2022/05/05 15:29:16;;;;;;;1.92;1.00;;;;;;;;;;6126805;23;20233;-60
2022/05/05 15:31:43;;;;;;;2.20;0.90;;;;;;;;;;6126415;23;20157;-60